sensor_id;sensor_type;location;lat;lon;timestamp;temperature;humidity
18218;DHT22;9234;49.344;11.120;2022-11-02T00:02:08;9.60;99.90
18218;DHT22;9234;49.344;11.120;2022-11-02T00:04:36;9.60;99.90
18218;DHT22;9234;49.344;11.120;2022-11-02T00:07:04;9.60;99.90
18218;DHT22;9234;49.344;11.120;2022-11-02T00:09:33;9.60;99.90
18218;DHT22;9234;49.344;11.120;2022-11-02T00:12:01;9.70;99.90
18218;DHT22;9234;49.344;11.120;2022-11-02T00:14:30;9.70;99.90
18218;DHT22;9234;49.344;11.120;2022-11-02T00:16:58;9.70;99.90
18218;DHT22;9234;49.344;11.120;2022-11-02T00:19:28;9.60;99.90
18218;DHT22;9234;49.344;11.120;2022-11-02T00:21:57;9.60;99.90
18218;DHT22;9234;49.344;11.120;2022-11-02T00:24:27;9.60;99.90
18218;DHT22;9234;49.344;11.120;2022-11-02T00:26:56;9.60;99.90
18218;DHT22;9234;49.344;11.120;2022-11-02T00:29:25;9.60;99.90
18218;DHT22;9234;49.344;11.120;2022-11-02T00:32:00;9.60;99.90
18218;DHT22;9234;49.344;11.120;2022-11-02T00:34:29;9.60;99.90
18218;DHT22;9234;49.344;11.120;2022-11-02T00:36:57;9.60;99.90
18218;DHT22;9234;49.344;11.120;2022-11-02T00:39:25;9.60;99.90
18218;DHT22;9234;49.344;11.120;2022-11-02T00:41:53;9.60;99.90
18218;DHT22;9234;49.344;11.120;2022-11-02T00:44:21;9.70;99.90
18218;DHT22;9234;49.344;11.120;2022-11-02T00:46:50;9.60;99.90
18218;DHT22;9234;49.344;11.120;2022-11-02T00:49:19;9.70;99.90
18218;DHT22;9234;49.344;11.120;2022-11-02T00:51:48;9.70;99.90
18218;DHT22;9234;49.344;11.120;2022-11-02T00:54:16;9.70;99.90
18218;DHT22;9234;49.344;11.120;2022-11-02T00:56:48;9.60;99.90
18218;DHT22;9234;49.344;11.120;2022-11-02T00:59:17;9.60;99.90
18218;DHT22;9234;49.344;11.120;2022-11-02T01:01:45;9.50;99.90
18218;DHT22;9234;49.344;11.120;2022-11-02T01:04:16;9.50;99.90
18218;DHT22;9234;49.344;11.120;2022-11-02T01:06:46;9.40;99.90
18218;DHT22;9234;49.344;11.120;2022-11-02T01:09:15;9.30;99.90
18218;DHT22;9234;49.344;11.120;2022-11-02T01:11:43;9.40;99.90
18218;DHT22;9234;49.344;11.120;2022-11-02T01:14:13;9.40;99.90
18218;DHT22;9234;49.344;11.120;2022-11-02T01:16:41;9.30;99.90
18218;DHT22;9234;49.344;11.120;2022-11-02T01:19:17;9.30;99.90
18218;DHT22;9234;49.344;11.120;2022-11-02T01:21:47;9.30;99.90
18218;DHT22;9234;49.344;11.120;2022-11-02T01:24:15;9.40;99.90
18218;DHT22;9234;49.344;11.120;2022-11-02T01:26:43;9.30;99.90
18218;DHT22;9234;49.344;11.120;2022-11-02T01:29:12;9.30;99.90
18218;DHT22;9234;49.344;11.120;2022-11-02T01:31:40;9.30;99.90
18218;DHT22;9234;49.344;11.120;2022-11-02T01:34:09;9.30;99.90
18218;DHT22;9234;49.344;11.120;2022-11-02T01:36:38;9.30;99.90
18218;DHT22;9234;49.344;11.120;2022-11-02T01:39:07;9.20;99.90
18218;DHT22;9234;49.344;11.120;2022-11-02T01:41:36;9.10;99.90
18218;DHT22;9234;49.344;11.120;2022-11-02T01:44:19;9.10;99.90
18218;DHT22;9234;49.344;11.120;2022-11-02T01:46:56;9.10;99.90
18218;DHT22;9234;49.344;11.120;2022-11-02T01:49:30;9.00;99.90
18218;DHT22;9234;49.344;11.120;2022-11-02T01:52:05;9.00;99.90
18218;DHT22;9234;49.344;11.120;2022-11-02T01:54:40;9.00;99.90
18218;DHT22;9234;49.344;11.120;2022-11-02T01:57:14;9.00;99.90
18218;DHT22;9234;49.344;11.120;2022-11-02T01:59:49;9.00;99.90
18218;DHT22;9234;49.344;11.120;2022-11-02T02:02:24;8.90;99.90
18218;DHT22;9234;49.344;11.120;2022-11-02T02:04:58;8.90;99.90
18218;DHT22;9234;49.344;11.120;2022-11-02T02:07:30;8.90;99.90
18218;DHT22;9234;49.344;11.120;2022-11-02T02:10:03;8.80;99.90
18218;DHT22;9234;49.344;11.120;2022-11-02T02:12:33;8.80;99.90
18218;DHT22;9234;49.344;11.120;2022-11-02T02:15:05;8.70;99.90
18218;DHT22;9234;49.344;11.120;2022-11-02T02:17:42;8.70;99.90
18218;DHT22;9234;49.344;11.120;2022-11-02T02:20:29;8.60;99.90
18218;DHT22;9234;49.344;11.120;2022-11-02T02:29:44;8.30;99.90
18218;DHT22;9234;49.344;11.120;2022-11-02T02:32:24;8.30;99.90
18218;DHT22;9234;49.344;11.120;2022-11-02T02:35:03;8.30;99.90
18218;DHT22;9234;49.344;11.120;2022-11-02T02:37:47;8.20;99.90
18218;DHT22;9234;49.344;11.120;2022-11-02T02:40:26;8.20;99.90
18218;DHT22;9234;49.344;11.120;2022-11-02T02:43:03;8.20;99.90
18218;DHT22;9234;49.344;11.120;2022-11-02T02:45:39;8.20;99.90
18218;DHT22;9234;49.344;11.120;2022-11-02T02:48:16;8.20;99.90
18218;DHT22;9234;49.344;11.120;2022-11-02T02:50:48;8.20;99.90
18218;DHT22;9234;49.344;11.120;2022-11-02T02:53:21;8.20;99.90
18218;DHT22;9234;49.344;11.120;2022-11-02T02:55:52;8.30;99.90
18218;DHT22;9234;49.344;11.120;2022-11-02T02:58:28;8.20;99.90
18218;DHT22;9234;49.344;11.120;2022-11-02T03:01:00;8.20;99.90
18218;DHT22;9234;49.344;11.120;2022-11-02T03:03:29;8.20;99.90
18218;DHT22;9234;49.344;11.120;2022-11-02T03:06:04;8.10;99.90
18218;DHT22;9234;49.344;11.120;2022-11-02T03:08:42;8.00;99.90
18218;DHT22;9234;49.344;11.120;2022-11-02T03:11:17;7.90;99.90
18218;DHT22;9234;49.344;11.120;2022-11-02T03:14:05;7.90;99.90
18218;DHT22;9234;49.344;11.120;2022-11-02T03:17:01;7.80;99.90
18218;DHT22;9234;49.344;11.120;2022-11-02T03:19:43;7.70;99.90
18218;DHT22;9234;49.344;11.120;2022-11-02T03:22:25;7.70;99.90
18218;DHT22;9234;49.344;11.120;2022-11-02T03:25:06;7.60;99.90
18218;DHT22;9234;49.344;11.120;2022-11-02T03:27:50;7.50;99.90
18218;DHT22;9234;49.344;11.120;2022-11-02T03:30:23;7.50;99.90
18218;DHT22;9234;49.344;11.120;2022-11-02T03:33:03;7.40;99.90
18218;DHT22;9234;49.344;11.120;2022-11-02T03:35:38;7.40;99.90
18218;DHT22;9234;49.344;11.120;2022-11-02T03:38:13;7.30;99.90
18218;DHT22;9234;49.344;11.120;2022-11-02T03:40:46;7.20;99.90
18218;DHT22;9234;49.344;11.120;2022-11-02T03:43:18;7.20;99.90
18218;DHT22;9234;49.344;11.120;2022-11-02T03:45:53;7.10;99.90
18218;DHT22;9234;49.344;11.120;2022-11-02T03:48:29;7.10;99.90
18218;DHT22;9234;49.344;11.120;2022-11-02T03:51:05;7.10;99.90
18218;DHT22;9234;49.344;11.120;2022-11-02T03:53:42;7.10;99.90
18218;DHT22;9234;49.344;11.120;2022-11-02T03:56:20;7.00;99.90
18218;DHT22;9234;49.344;11.120;2022-11-02T03:58:53;6.90;99.90
18218;DHT22;9234;49.344;11.120;2022-11-02T04:01:24;6.90;99.90
18218;DHT22;9234;49.344;11.120;2022-11-02T04:03:56;6.90;99.90
18218;DHT22;9234;49.344;11.120;2022-11-02T04:06:26;6.90;99.90
18218;DHT22;9234;49.344;11.120;2022-11-02T04:08:54;6.90;99.90
18218;DHT22;9234;49.344;11.120;2022-11-02T04:11:23;6.90;99.90
18218;DHT22;9234;49.344;11.120;2022-11-02T04:14:12;6.90;99.90
18218;DHT22;9234;49.344;11.120;2022-11-02T04:16:59;6.90;99.90
18218;DHT22;9234;49.344;11.120;2022-11-02T04:19:49;6.90;99.90
18218;DHT22;9234;49.344;11.120;2022-11-02T04:22:20;6.90;99.90
18218;DHT22;9234;49.344;11.120;2022-11-02T04:25:14;6.90;99.90
18218;DHT22;9234;49.344;11.120;2022-11-02T04:28:06;6.90;99.90
18218;DHT22;9234;49.344;11.120;2022-11-02T04:30:44;6.80;99.90
18218;DHT22;9234;49.344;11.120;2022-11-02T04:33:13;6.80;99.90
18218;DHT22;9234;49.344;11.120;2022-11-02T04:36:11;6.80;99.90
18218;DHT22;9234;49.344;11.120;2022-11-02T04:38:43;6.80;99.90
18218;DHT22;9234;49.344;11.120;2022-11-02T04:41:24;6.70;99.90
18218;DHT22;9234;49.344;11.120;2022-11-02T04:44:19;6.70;99.90
18218;DHT22;9234;49.344;11.120;2022-11-02T04:46:59;6.70;99.90
18218;DHT22;9234;49.344;11.120;2022-11-02T04:49:30;6.70;99.90
18218;DHT22;9234;49.344;11.120;2022-11-02T04:52:00;6.60;99.90
18218;DHT22;9234;49.344;11.120;2022-11-02T04:54:31;6.60;99.90
18218;DHT22;9234;49.344;11.120;2022-11-02T04:57:02;6.60;99.90
18218;DHT22;9234;49.344;11.120;2022-11-02T04:59:32;6.60;99.90
18218;DHT22;9234;49.344;11.120;2022-11-02T05:02:00;6.60;99.90
18218;DHT22;9234;49.344;11.120;2022-11-02T05:04:28;6.60;99.90
18218;DHT22;9234;49.344;11.120;2022-11-02T05:06:57;6.70;99.90
18218;DHT22;9234;49.344;11.120;2022-11-02T05:09:31;6.60;99.90
18218;DHT22;9234;49.344;11.120;2022-11-02T05:11:59;6.70;99.90
18218;DHT22;9234;49.344;11.120;2022-11-02T05:14:31;6.70;99.90
18218;DHT22;9234;49.344;11.120;2022-11-02T05:17:00;6.70;99.90
18218;DHT22;9234;49.344;11.120;2022-11-02T05:19:29;6.70;99.90
18218;DHT22;9234;49.344;11.120;2022-11-02T05:21:59;6.70;99.90
18218;DHT22;9234;49.344;11.120;2022-11-02T05:24:28;6.70;99.90
18218;DHT22;9234;49.344;11.120;2022-11-02T05:26:59;6.70;99.90
18218;DHT22;9234;49.344;11.120;2022-11-02T05:29:30;6.70;99.90
18218;DHT22;9234;49.344;11.120;2022-11-02T05:31:58;6.70;99.90
18218;DHT22;9234;49.344;11.120;2022-11-02T05:34:26;6.70;99.90
18218;DHT22;9234;49.344;11.120;2022-11-02T05:36:55;6.70;99.90
18218;DHT22;9234;49.344;11.120;2022-11-02T05:39:23;6.70;99.90
18218;DHT22;9234;49.344;11.120;2022-11-02T05:41:53;6.70;99.90
18218;DHT22;9234;49.344;11.120;2022-11-02T05:44:21;6.70;99.90
18218;DHT22;9234;49.344;11.120;2022-11-02T05:46:50;6.70;99.90
18218;DHT22;9234;49.344;11.120;2022-11-02T05:49:18;6.70;99.90
18218;DHT22;9234;49.344;11.120;2022-11-02T05:51:46;6.70;99.90
18218;DHT22;9234;49.344;11.120;2022-11-02T05:54:14;6.70;99.90
18218;DHT22;9234;49.344;11.120;2022-11-02T05:56:43;6.70;99.90
18218;DHT22;9234;49.344;11.120;2022-11-02T05:59:12;6.70;99.90
18218;DHT22;9234;49.344;11.120;2022-11-02T06:01:40;6.80;99.90
18218;DHT22;9234;49.344;11.120;2022-11-02T06:04:09;6.80;99.90
18218;DHT22;9234;49.344;11.120;2022-11-02T06:06:37;6.80;99.90
18218;DHT22;9234;49.344;11.120;2022-11-02T06:09:05;6.80;99.90
18218;DHT22;9234;49.344;11.120;2022-11-02T06:11:34;6.80;99.90
18218;DHT22;9234;49.344;11.120;2022-11-02T06:14:02;6.80;99.90
18218;DHT22;9234;49.344;11.120;2022-11-02T06:16:32;6.70;99.90
18218;DHT22;9234;49.344;11.120;2022-11-02T06:19:00;6.70;99.90
18218;DHT22;9234;49.344;11.120;2022-11-02T06:21:28;6.70;99.90
18218;DHT22;9234;49.344;11.120;2022-11-02T06:23:56;6.70;99.90
18218;DHT22;9234;49.344;11.120;2022-11-02T06:26:25;6.70;99.90
18218;DHT22;9234;49.344;11.120;2022-11-02T06:28:53;6.70;99.90
18218;DHT22;9234;49.344;11.120;2022-11-02T06:31:22;6.70;99.90
18218;DHT22;9234;49.344;11.120;2022-11-02T06:33:52;6.70;99.90
18218;DHT22;9234;49.344;11.120;2022-11-02T06:36:20;6.70;99.90
18218;DHT22;9234;49.344;11.120;2022-11-02T06:38:48;6.80;99.90
18218;DHT22;9234;49.344;11.120;2022-11-02T06:41:16;6.80;99.90
18218;DHT22;9234;49.344;11.120;2022-11-02T06:43:44;6.90;99.90
18218;DHT22;9234;49.344;11.120;2022-11-02T06:46:13;6.90;99.90
18218;DHT22;9234;49.344;11.120;2022-11-02T06:48:41;7.00;99.90
18218;DHT22;9234;49.344;11.120;2022-11-02T06:51:10;7.10;99.90
18218;DHT22;9234;49.344;11.120;2022-11-02T06:53:39;7.20;99.90
18218;DHT22;9234;49.344;11.120;2022-11-02T06:56:08;7.30;99.90
18218;DHT22;9234;49.344;11.120;2022-11-02T06:58:38;7.40;99.90
18218;DHT22;9234;49.344;11.120;2022-11-02T07:01:07;7.60;99.90
18218;DHT22;9234;49.344;11.120;2022-11-02T07:03:36;7.70;99.90
18218;DHT22;9234;49.344;11.120;2022-11-02T07:06:04;7.90;99.90
18218;DHT22;9234;49.344;11.120;2022-11-02T07:08:40;8.00;99.90
18218;DHT22;9234;49.344;11.120;2022-11-02T07:11:12;8.10;99.90
18218;DHT22;9234;49.344;11.120;2022-11-02T07:13:41;8.20;99.90
18218;DHT22;9234;49.344;11.120;2022-11-02T07:16:10;8.20;99.90
18218;DHT22;9234;49.344;11.120;2022-11-02T07:18:38;8.30;99.90
18218;DHT22;9234;49.344;11.120;2022-11-02T07:21:07;8.40;99.90
18218;DHT22;9234;49.344;11.120;2022-11-02T07:23:37;8.40;99.90
18218;DHT22;9234;49.344;11.120;2022-11-02T07:26:06;8.50;99.90
18218;DHT22;9234;49.344;11.120;2022-11-02T07:28:34;8.60;99.90
18218;DHT22;9234;49.344;11.120;2022-11-02T07:31:04;8.70;99.90
18218;DHT22;9234;49.344;11.120;2022-11-02T07:33:32;8.80;99.90
18218;DHT22;9234;49.344;11.120;2022-11-02T07:36:02;8.80;99.90
18218;DHT22;9234;49.344;11.120;2022-11-02T07:38:31;8.90;99.90
18218;DHT22;9234;49.344;11.120;2022-11-02T07:40:59;9.10;99.90
18218;DHT22;9234;49.344;11.120;2022-11-02T07:43:28;9.30;99.90
18218;DHT22;9234;49.344;11.120;2022-11-02T07:46:10;9.40;99.90
18218;DHT22;9234;49.344;11.120;2022-11-02T07:48:38;9.60;99.90
18218;DHT22;9234;49.344;11.120;2022-11-02T07:51:06;9.70;99.90
18218;DHT22;9234;49.344;11.120;2022-11-02T07:53:37;9.80;99.90
18218;DHT22;9234;49.344;11.120;2022-11-02T07:56:06;10.00;99.90
18218;DHT22;9234;49.344;11.120;2022-11-02T07:58:36;10.10;99.90
18218;DHT22;9234;49.344;11.120;2022-11-02T08:01:04;10.10;99.90
18218;DHT22;9234;49.344;11.120;2022-11-02T08:03:32;10.20;99.90
18218;DHT22;9234;49.344;11.120;2022-11-02T08:06:01;10.30;99.90
18218;DHT22;9234;49.344;11.120;2022-11-02T08:08:29;10.40;99.90
18218;DHT22;9234;49.344;11.120;2022-11-02T08:11:03;10.40;99.90
18218;DHT22;9234;49.344;11.120;2022-11-02T08:13:34;10.50;99.90
18218;DHT22;9234;49.344;11.120;2022-11-02T08:16:05;10.60;99.90
18218;DHT22;9234;49.344;11.120;2022-11-02T08:18:33;10.80;99.90
18218;DHT22;9234;49.344;11.120;2022-11-02T08:21:02;10.90;99.90
18218;DHT22;9234;49.344;11.120;2022-11-02T08:23:30;11.00;99.90
18218;DHT22;9234;49.344;11.120;2022-11-02T08:25:59;11.00;99.90
18218;DHT22;9234;49.344;11.120;2022-11-02T08:28:28;11.10;99.90
18218;DHT22;9234;49.344;11.120;2022-11-02T08:31:03;11.30;99.90
18218;DHT22;9234;49.344;11.120;2022-11-02T08:33:32;11.30;99.90
18218;DHT22;9234;49.344;11.120;2022-11-02T08:36:02;11.40;99.90
18218;DHT22;9234;49.344;11.120;2022-11-02T08:38:31;11.50;99.90
18218;DHT22;9234;49.344;11.120;2022-11-02T08:40:59;11.60;99.90
18218;DHT22;9234;49.344;11.120;2022-11-02T08:43:27;11.70;99.90
18218;DHT22;9234;49.344;11.120;2022-11-02T08:45:56;11.80;99.90
18218;DHT22;9234;49.344;11.120;2022-11-02T08:48:44;11.90;99.90
18218;DHT22;9234;49.344;11.120;2022-11-02T08:51:12;12.10;99.90
18218;DHT22;9234;49.344;11.120;2022-11-02T08:53:40;12.20;99.90
18218;DHT22;9234;49.344;11.120;2022-11-02T08:56:17;12.40;99.90
18218;DHT22;9234;49.344;11.120;2022-11-02T08:58:45;12.50;99.90
18218;DHT22;9234;49.344;11.120;2022-11-02T09:01:13;12.50;99.90
18218;DHT22;9234;49.344;11.120;2022-11-02T09:03:42;12.60;99.90
18218;DHT22;9234;49.344;11.120;2022-11-02T09:06:11;12.60;99.90
18218;DHT22;9234;49.344;11.120;2022-11-02T09:08:39;12.70;99.90
18218;DHT22;9234;49.344;11.120;2022-11-02T09:11:07;12.70;99.90
18218;DHT22;9234;49.344;11.120;2022-11-02T09:13:36;12.70;99.90
18218;DHT22;9234;49.344;11.120;2022-11-02T09:16:05;12.70;99.90
18218;DHT22;9234;49.344;11.120;2022-11-02T09:18:34;12.70;99.90
18218;DHT22;9234;49.344;11.120;2022-11-02T09:21:05;12.80;99.90
18218;DHT22;9234;49.344;11.120;2022-11-02T09:23:33;12.80;99.90
18218;DHT22;9234;49.344;11.120;2022-11-02T09:26:02;12.90;99.90
18218;DHT22;9234;49.344;11.120;2022-11-02T09:28:30;12.90;99.90
18218;DHT22;9234;49.344;11.120;2022-11-02T09:30:58;13.00;99.90
18218;DHT22;9234;49.344;11.120;2022-11-02T09:33:28;13.10;99.90
18218;DHT22;9234;49.344;11.120;2022-11-02T09:36:01;13.20;99.90
18218;DHT22;9234;49.344;11.120;2022-11-02T09:38:32;13.30;99.90
18218;DHT22;9234;49.344;11.120;2022-11-02T09:41:07;13.40;99.90
18218;DHT22;9234;49.344;11.120;2022-11-02T09:43:49;13.60;99.90
18218;DHT22;9234;49.344;11.120;2022-11-02T09:46:27;13.70;99.90
18218;DHT22;9234;49.344;11.120;2022-11-02T09:49:02;13.70;99.90
18218;DHT22;9234;49.344;11.120;2022-11-02T09:51:36;13.80;99.90
18218;DHT22;9234;49.344;11.120;2022-11-02T09:54:12;13.80;99.90
18218;DHT22;9234;49.344;11.120;2022-11-02T09:56:45;13.90;99.90
18218;DHT22;9234;49.344;11.120;2022-11-02T09:59:17;14.00;99.90
18218;DHT22;9234;49.344;11.120;2022-11-02T10:01:53;14.10;99.90
18218;DHT22;9234;49.344;11.120;2022-11-02T10:07:49;14.20;99.90
18218;DHT22;9234;49.344;11.120;2022-11-02T10:10:33;14.40;99.90
18218;DHT22;9234;49.344;11.120;2022-11-02T10:13:17;14.50;99.90
18218;DHT22;9234;49.344;11.120;2022-11-02T10:16:02;14.60;99.90
18218;DHT22;9234;49.344;11.120;2022-11-02T10:18:35;14.70;99.90
18218;DHT22;9234;49.344;11.120;2022-11-02T10:21:06;14.80;99.90
18218;DHT22;9234;49.344;11.120;2022-11-02T10:23:40;14.80;99.90
18218;DHT22;9234;49.344;11.120;2022-11-02T10:26:17;14.80;99.90
18218;DHT22;9234;49.344;11.120;2022-11-02T10:28:58;14.80;99.90
18218;DHT22;9234;49.344;11.120;2022-11-02T10:31:32;14.80;99.90
18218;DHT22;9234;49.344;11.120;2022-11-02T10:34:14;14.80;99.90
18218;DHT22;9234;49.344;11.120;2022-11-02T10:36:57;14.80;99.90
18218;DHT22;9234;49.344;11.120;2022-11-02T10:39:42;14.80;99.90
18218;DHT22;9234;49.344;11.120;2022-11-02T10:42:30;14.80;99.90
18218;DHT22;9234;49.344;11.120;2022-11-02T10:45:25;14.80;99.90
18218;DHT22;9234;49.344;11.120;2022-11-02T10:48:08;14.80;99.90
18218;DHT22;9234;49.344;11.120;2022-11-02T10:50:52;14.80;99.90
18218;DHT22;9234;49.344;11.120;2022-11-02T10:53:33;14.90;99.90
18218;DHT22;9234;49.344;11.120;2022-11-02T10:56:15;15.00;99.90
18218;DHT22;9234;49.344;11.120;2022-11-02T10:58:50;15.20;99.90
18218;DHT22;9234;49.344;11.120;2022-11-02T11:01:23;15.50;99.90
18218;DHT22;9234;49.344;11.120;2022-11-02T11:03:59;15.60;99.90
18218;DHT22;9234;49.344;11.120;2022-11-02T11:06:30;15.70;99.90
18218;DHT22;9234;49.344;11.120;2022-11-02T11:09:04;15.70;99.90
18218;DHT22;9234;49.344;11.120;2022-11-02T11:11:36;15.60;99.90
18218;DHT22;9234;49.344;11.120;2022-11-02T11:14:11;15.60;99.90
18218;DHT22;9234;49.344;11.120;2022-11-02T11:17:13;15.50;99.90
18218;DHT22;9234;49.344;11.120;2022-11-02T11:20:06;15.40;99.90
18218;DHT22;9234;49.344;11.120;2022-11-02T11:23:07;15.40;99.90
18218;DHT22;9234;49.344;11.120;2022-11-02T11:25:42;15.30;99.90
18218;DHT22;9234;49.344;11.120;2022-11-02T11:28:24;15.20;99.90
18218;DHT22;9234;49.344;11.120;2022-11-02T11:31:05;15.20;99.90
18218;DHT22;9234;49.344;11.120;2022-11-02T11:33:49;15.10;99.90
18218;DHT22;9234;49.344;11.120;2022-11-02T11:36:22;15.10;99.90
18218;DHT22;9234;49.344;11.120;2022-11-02T11:38:54;15.10;99.90
18218;DHT22;9234;49.344;11.120;2022-11-02T11:41:25;15.20;99.90
18218;DHT22;9234;49.344;11.120;2022-11-02T11:43:56;15.30;99.90
18218;DHT22;9234;49.344;11.120;2022-11-02T11:46:38;15.40;99.90
18218;DHT22;9234;49.344;11.120;2022-11-02T11:49:20;15.50;99.90
18218;DHT22;9234;49.344;11.120;2022-11-02T11:52:16;15.60;99.90
18218;DHT22;9234;49.344;11.120;2022-11-02T11:54:58;15.60;99.90
18218;DHT22;9234;49.344;11.120;2022-11-02T11:57:29;15.70;99.90
18218;DHT22;9234;49.344;11.120;2022-11-02T12:00:00;15.70;99.90
18218;DHT22;9234;49.344;11.120;2022-11-02T12:03:01;15.60;99.90
18218;DHT22;9234;49.344;11.120;2022-11-02T12:05:37;15.60;99.90
18218;DHT22;9234;49.344;11.120;2022-11-02T12:08:37;15.50;99.90
18218;DHT22;9234;49.344;11.120;2022-11-02T12:11:24;15.50;99.90
18218;DHT22;9234;49.344;11.120;2022-11-02T12:14:11;15.50;99.90
18218;DHT22;9234;49.344;11.120;2022-11-02T12:17:09;15.50;99.90
18218;DHT22;9234;49.344;11.120;2022-11-02T12:20:01;15.40;99.90
18218;DHT22;9234;49.344;11.120;2022-11-02T12:22:52;15.40;99.90
18218;DHT22;9234;49.344;11.120;2022-11-02T12:25:34;15.30;99.90
18218;DHT22;9234;49.344;11.120;2022-11-02T12:28:24;15.30;99.90
18218;DHT22;9234;49.344;11.120;2022-11-02T12:31:05;15.30;99.90
18218;DHT22;9234;49.344;11.120;2022-11-02T12:33:56;15.30;99.90
18218;DHT22;9234;49.344;11.120;2022-11-02T12:36:45;15.20;99.90
18218;DHT22;9234;49.344;11.120;2022-11-02T12:39:56;15.10;99.90
18218;DHT22;9234;49.344;11.120;2022-11-02T12:42:38;15.10;99.90
18218;DHT22;9234;49.344;11.120;2022-11-02T12:45:21;15.10;99.90
18218;DHT22;9234;49.344;11.120;2022-11-02T12:48:04;15.00;99.90
18218;DHT22;9234;49.344;11.120;2022-11-02T12:50:52;15.00;99.90
18218;DHT22;9234;49.344;11.120;2022-11-02T12:53:41;15.00;99.90
18218;DHT22;9234;49.344;11.120;2022-11-02T12:56:18;15.00;99.90
18218;DHT22;9234;49.344;11.120;2022-11-02T12:58:49;15.10;99.90
18218;DHT22;9234;49.344;11.120;2022-11-02T13:01:22;15.00;99.90
18218;DHT22;9234;49.344;11.120;2022-11-02T13:03:58;15.00;99.90
18218;DHT22;9234;49.344;11.120;2022-11-02T13:06:37;14.90;99.90
18218;DHT22;9234;49.344;11.120;2022-11-02T13:09:12;14.90;99.90
18218;DHT22;9234;49.344;11.120;2022-11-02T13:11:47;14.90;99.90
18218;DHT22;9234;49.344;11.120;2022-11-02T13:14:21;15.10;99.90
18218;DHT22;9234;49.344;11.120;2022-11-02T13:16:54;15.40;99.90
18218;DHT22;9234;49.344;11.120;2022-11-02T13:19:31;15.60;99.90
18218;DHT22;9234;49.344;11.120;2022-11-02T13:22:08;15.70;99.90
18218;DHT22;9234;49.344;11.120;2022-11-02T13:24:42;15.70;99.90
18218;DHT22;9234;49.344;11.120;2022-11-02T13:27:24;15.70;99.90
18218;DHT22;9234;49.344;11.120;2022-11-02T13:30:04;15.60;99.90
18218;DHT22;9234;49.344;11.120;2022-11-02T13:32:42;15.60;99.90
18218;DHT22;9234;49.344;11.120;2022-11-02T13:35:17;15.50;99.90
18218;DHT22;9234;49.344;11.120;2022-11-02T13:37:56;15.40;99.90
18218;DHT22;9234;49.344;11.120;2022-11-02T13:40:35;15.20;99.90
18218;DHT22;9234;49.344;11.120;2022-11-02T13:43:37;15.20;99.90
18218;DHT22;9234;49.344;11.120;2022-11-02T13:46:44;15.10;99.90
18218;DHT22;9234;49.344;11.120;2022-11-02T13:49:41;14.90;99.90
18218;DHT22;9234;49.344;11.120;2022-11-02T13:52:13;14.80;99.90
18218;DHT22;9234;49.344;11.120;2022-11-02T13:54:45;14.70;99.90
18218;DHT22;9234;49.344;11.120;2022-11-02T13:57:30;14.60;99.90
18218;DHT22;9234;49.344;11.120;2022-11-02T14:00:02;14.50;99.90
18218;DHT22;9234;49.344;11.120;2022-11-02T14:02:35;14.40;99.90
18218;DHT22;9234;49.344;11.120;2022-11-02T14:05:08;14.50;99.90
18218;DHT22;9234;49.344;11.120;2022-11-02T14:07:51;14.50;99.90
18218;DHT22;9234;49.344;11.120;2022-11-02T14:10:22;14.60;99.90
18218;DHT22;9234;49.344;11.120;2022-11-02T14:12:53;14.70;99.90
18218;DHT22;9234;49.344;11.120;2022-11-02T14:15:42;14.70;99.90
18218;DHT22;9234;49.344;11.120;2022-11-02T14:18:24;14.80;99.90
18218;DHT22;9234;49.344;11.120;2022-11-02T14:20:57;14.90;99.90
18218;DHT22;9234;49.344;11.120;2022-11-02T14:26:32;14.90;99.90
18218;DHT22;9234;49.344;11.120;2022-11-02T14:29:09;15.00;99.90
18218;DHT22;9234;49.344;11.120;2022-11-02T14:32:19;15.00;99.90
18218;DHT22;9234;49.344;11.120;2022-11-02T14:35:09;14.90;99.90
18218;DHT22;9234;49.344;11.120;2022-11-02T14:38:03;14.90;99.90
18218;DHT22;9234;49.344;11.120;2022-11-02T14:40:50;14.80;99.90
18218;DHT22;9234;49.344;11.120;2022-11-02T14:43:54;14.70;99.90
18218;DHT22;9234;49.344;11.120;2022-11-02T14:46:51;14.70;99.90
18218;DHT22;9234;49.344;11.120;2022-11-02T14:49:25;14.50;99.90
18218;DHT22;9234;49.344;11.120;2022-11-02T14:52:00;14.40;99.90
18218;DHT22;9234;49.344;11.120;2022-11-02T14:54:32;14.40;99.90
18218;DHT22;9234;49.344;11.120;2022-11-02T14:57:16;14.20;99.90
18218;DHT22;9234;49.344;11.120;2022-11-02T14:59:54;14.10;99.90
18218;DHT22;9234;49.344;11.120;2022-11-02T15:02:28;14.00;99.90
18218;DHT22;9234;49.344;11.120;2022-11-02T15:05:06;13.90;99.90
18218;DHT22;9234;49.344;11.120;2022-11-02T15:07:46;13.80;99.90
18218;DHT22;9234;49.344;11.120;2022-11-02T15:10:39;13.80;99.90
18218;DHT22;9234;49.344;11.120;2022-11-02T15:13:32;13.70;99.90
18218;DHT22;9234;49.344;11.120;2022-11-02T15:16:24;13.60;99.90
18218;DHT22;9234;49.344;11.120;2022-11-02T15:19:35;13.50;99.90
18218;DHT22;9234;49.344;11.120;2022-11-02T15:22:33;13.40;99.90
18218;DHT22;9234;49.344;11.120;2022-11-02T15:25:10;13.30;99.90
18218;DHT22;9234;49.344;11.120;2022-11-02T15:27:43;13.20;99.90
18218;DHT22;9234;49.344;11.120;2022-11-02T15:30:13;13.10;99.90
18218;DHT22;9234;49.344;11.120;2022-11-02T15:32:48;13.00;99.90
18218;DHT22;9234;49.344;11.120;2022-11-02T15:35:29;12.90;99.90
18218;DHT22;9234;49.344;11.120;2022-11-02T15:38:02;12.80;99.90
18218;DHT22;9234;49.344;11.120;2022-11-02T15:40:55;12.70;99.90
18218;DHT22;9234;49.344;11.120;2022-11-02T15:44:06;12.60;99.90
18218;DHT22;9234;49.344;11.120;2022-11-02T15:46:53;12.50;99.90
18218;DHT22;9234;49.344;11.120;2022-11-02T15:49:57;12.40;99.90
18218;DHT22;9234;49.344;11.120;2022-11-02T15:53:04;12.20;99.90
18218;DHT22;9234;49.344;11.120;2022-11-02T15:55:59;12.10;99.90
18218;DHT22;9234;49.344;11.120;2022-11-02T15:58:48;11.90;99.90
18218;DHT22;9234;49.344;11.120;2022-11-02T16:01:41;11.80;99.90
18218;DHT22;9234;49.344;11.120;2022-11-02T16:04:18;11.60;99.90
18218;DHT22;9234;49.344;11.120;2022-11-02T16:06:48;11.40;99.90
18218;DHT22;9234;49.344;11.120;2022-11-02T16:09:30;11.30;99.90
18218;DHT22;9234;49.344;11.120;2022-11-02T16:12:01;11.20;99.90
18218;DHT22;9234;49.344;11.120;2022-11-02T16:14:38;11.00;99.90
18218;DHT22;9234;49.344;11.120;2022-11-02T16:17:18;10.90;99.90
18218;DHT22;9234;49.344;11.120;2022-11-02T16:19:48;10.70;99.90
18218;DHT22;9234;49.344;11.120;2022-11-02T16:22:25;10.60;99.90
18218;DHT22;9234;49.344;11.120;2022-11-02T16:24:54;10.50;99.90
18218;DHT22;9234;49.344;11.120;2022-11-02T16:27:22;10.30;99.90
18218;DHT22;9234;49.344;11.120;2022-11-02T16:29:50;10.20;99.90
18218;DHT22;9234;49.344;11.120;2022-11-02T16:32:18;10.10;99.90
18218;DHT22;9234;49.344;11.120;2022-11-02T16:34:47;10.00;99.90
18218;DHT22;9234;49.344;11.120;2022-11-02T16:37:15;9.90;99.90
18218;DHT22;9234;49.344;11.120;2022-11-02T16:39:48;9.80;99.90
18218;DHT22;9234;49.344;11.120;2022-11-02T16:42:21;9.70;99.90
18218;DHT22;9234;49.344;11.120;2022-11-02T16:44:55;9.60;99.90